createdAt,value
2019-05-13T00:01:38.652Z,6.20
2019-05-13T00:04:08.853Z,6.20
2019-05-13T00:06:50.248Z,6.30
2019-05-13T00:09:09.371Z,6.30
2019-05-13T00:11:39.243Z,6.30
2019-05-13T00:14:09.217Z,6.30
2019-05-13T00:16:38.612Z,6.30
2019-05-13T00:19:08.678Z,6.20
2019-05-13T00:21:39.037Z,6.20
2019-05-13T00:24:08.651Z,6.20
2019-05-13T00:26:38.811Z,6.40
2019-05-13T00:29:09.704Z,6.30
2019-05-13T00:31:39.492Z,6.30
2019-05-13T00:34:09.204Z,6.30
2019-05-13T00:36:38.993Z,6.30
2019-05-13T00:39:09.363Z,6.20
2019-05-13T00:41:39.002Z,6.30
2019-05-13T00:44:08.199Z,6.30
2019-05-13T00:46:38.912Z,6.30
2019-05-13T00:49:08.225Z,6.30
2019-05-13T00:51:38.631Z,6.30
2019-05-13T00:54:09.111Z,6.30
2019-05-13T00:56:39.307Z,6.30
2019-05-13T00:59:09.358Z,6.30
2019-05-13T01:01:38.560Z,6.30
2019-05-13T01:04:09.228Z,6.30
2019-05-13T01:06:39.266Z,6.20
2019-05-13T01:09:09.187Z,6.30
2019-05-13T01:11:39.111Z,6.20
2019-05-13T01:14:09.207Z,5.90
2019-05-13T01:16:38.869Z,5.90
2019-05-13T01:19:09.231Z,5.90
2019-05-13T01:21:39.416Z,5.80
2019-05-13T01:24:09.040Z,5.70
2019-05-13T01:26:39.983Z,5.60
2019-05-13T01:29:09.152Z,5.60
2019-05-13T01:31:40.307Z,5.60
2019-05-13T01:34:09.735Z,5.80
2019-05-13T01:36:40.040Z,5.70
2019-05-13T01:39:09.508Z,5.70
2019-05-13T01:41:39.460Z,5.60
2019-05-13T01:44:09.864Z,5.40
2019-05-13T01:46:39.819Z,5.40
2019-05-13T01:49:09.868Z,5.40
2019-05-13T01:51:39.941Z,5.40
2019-05-13T01:54:09.646Z,5.40
2019-05-13T01:56:39.755Z,5.40
2019-05-13T01:59:10.153Z,5.20
2019-05-13T02:01:40.104Z,5.20
2019-05-13T02:04:10.860Z,5.20
2019-05-13T02:06:40.207Z,5.20
2019-05-13T02:09:10.124Z,5.20
2019-05-13T02:11:43.543Z,5.20
2019-05-13T02:14:13.241Z,5.20
2019-05-13T02:16:44.525Z,5.30
2019-05-13T02:19:14.318Z,5.30
2019-05-13T02:21:44.125Z,5.40
2019-05-13T02:24:14.599Z,5.40
2019-05-13T02:26:43.924Z,5.40
2019-05-13T02:29:14.473Z,5.40
2019-05-13T02:31:51.057Z,5.30
2019-05-13T02:34:15.347Z,5.40
2019-05-13T02:36:45.339Z,5.50
2019-05-13T02:39:15.246Z,5.50
2019-05-13T02:41:44.456Z,5.40
2019-05-13T02:44:13.697Z,5.40
2019-05-13T02:46:44.262Z,5.30
2019-05-13T02:49:14.131Z,5.30
2019-05-13T02:51:43.352Z,5.20
2019-05-13T02:54:12.745Z,5.20
2019-05-13T02:56:42.804Z,5.20
2019-05-13T02:59:13.548Z,5.00
2019-05-13T03:01:43.365Z,5.00
2019-05-13T03:04:13.829Z,4.90
2019-05-13T03:06:43.825Z,5.00
2019-05-13T03:09:13.370Z,4.80
2019-05-13T03:11:42.947Z,4.80
2019-05-13T03:14:13.196Z,4.80
2019-05-13T03:16:58.656Z,4.80
2019-05-13T03:19:27.887Z,4.80
2019-05-13T03:21:57.380Z,4.70
2019-05-13T03:24:26.961Z,4.70
2019-05-13T03:26:56.477Z,4.80
2019-05-13T03:29:26.280Z,4.80
2019-05-13T03:31:56.882Z,4.90
2019-05-13T03:34:27.607Z,4.70
2019-05-13T03:36:58.205Z,4.70
2019-05-13T03:39:27.867Z,4.50
2019-05-13T03:41:59.158Z,4.60
2019-05-13T03:44:32.747Z,4.50
2019-05-13T03:47:04.650Z,4.50
2019-05-13T03:49:36.323Z,4.40
2019-05-13T03:52:05.865Z,4.30
2019-05-13T03:54:36.900Z,4.40
2019-05-13T03:57:06.253Z,4.30
2019-05-13T03:59:35.662Z,4.30
2019-05-13T04:02:05.046Z,4.40
2019-05-13T04:04:34.289Z,4.40
2019-05-13T04:07:03.794Z,4.40
2019-05-13T04:09:36.384Z,4.10
2019-05-13T04:12:04.206Z,4.10
2019-05-13T04:14:34.062Z,4.10
2019-05-13T04:17:03.763Z,4.30
2019-05-13T04:19:33.840Z,4.10
2019-05-13T04:22:03.472Z,4.20
2019-05-13T04:24:33.443Z,5.00
2019-05-13T04:27:03.463Z,5.80
2019-05-13T04:29:33.717Z,5.40
2019-05-13T04:32:03.217Z,5.20
2019-05-13T04:34:33.995Z,5.10
2019-05-13T04:37:04.068Z,5.10
2019-05-13T04:39:45.793Z,5.50
2019-05-13T04:42:05.423Z,5.50
2019-05-13T04:44:34.907Z,5.30
2019-05-13T04:47:04.884Z,5.70
2019-05-13T04:49:34.340Z,5.80
2019-05-13T04:52:04.169Z,5.90
2019-05-13T04:54:34.067Z,5.70
2019-05-13T04:57:03.801Z,5.60
2019-05-13T04:59:35.776Z,5.50
2019-05-13T05:02:37.440Z,5.60
2019-05-13T05:05:03.762Z,5.50
2019-05-13T05:07:42.043Z,5.80
2019-05-13T05:10:33.653Z,5.90
2019-05-13T05:14:07.576Z,5.90
2019-05-13T05:17:14.271Z,6.00
2019-05-13T05:20:14.961Z,6.20
2019-05-13T05:23:11.219Z,6.20
2019-05-13T05:26:02.788Z,6.30
2019-05-13T05:29:04.739Z,6.50
2019-05-13T05:32:18.489Z,6.70
2019-05-13T05:35:25.194Z,7.00
2019-05-13T05:38:36.284Z,7.20
2019-05-13T05:41:07.118Z,7.30
2019-05-13T05:43:42.100Z,7.60
2019-05-13T05:46:13.028Z,7.80
2019-05-13T05:48:43.777Z,7.70
2019-05-13T05:51:14.560Z,7.90
2019-05-13T05:53:46.787Z,8.20
2019-05-13T05:56:18.162Z,8.00
2019-05-13T05:58:49.127Z,8.00
2019-05-13T06:01:23.327Z,8.30
2019-05-13T06:03:56.492Z,8.80
2019-05-13T06:06:27.082Z,8.70
2019-05-13T06:08:56.971Z,9.00
2019-05-13T06:11:27.281Z,8.60
2019-05-13T06:13:57.164Z,8.60
2019-05-13T06:16:26.739Z,9.00
2019-05-13T06:18:55.878Z,9.10
2019-05-13T06:21:25.103Z,9.70
2019-05-13T06:23:55.379Z,9.60
2019-05-13T06:26:25.290Z,9.80
2019-05-13T06:28:55.156Z,10.00
2019-05-13T06:31:26.105Z,10.10
2019-05-13T06:33:55.824Z,9.60
2019-05-13T06:36:25.775Z,10.10
2019-05-13T06:38:55.160Z,10.20
2019-05-13T06:41:25.183Z,9.80
2019-05-13T06:43:55.555Z,10.00
2019-05-13T06:46:25.451Z,9.80
2019-05-13T06:48:54.702Z,9.70
2019-05-13T06:51:24.575Z,9.90
2019-05-13T06:53:53.758Z,10.50
2019-05-13T06:56:23.302Z,10.70
2019-05-13T06:58:52.624Z,10.30
2019-05-13T07:01:21.936Z,10.50
2019-05-13T07:03:51.904Z,10.90
2019-05-13T07:06:21.811Z,10.60
2019-05-13T07:08:52.126Z,10.80
2019-05-13T07:11:24.805Z,10.20
2019-05-13T07:13:53.359Z,10.80
2019-05-13T07:16:22.837Z,11.00
2019-05-13T07:18:52.534Z,10.80
2019-05-13T07:21:22.319Z,10.80
2019-05-13T07:23:54.809Z,10.50
2019-05-13T07:26:24.049Z,10.90
2019-05-13T07:28:54.237Z,11.00
2019-05-13T07:31:23.459Z,10.90
2019-05-13T07:33:53.683Z,11.10
2019-05-13T07:36:23.708Z,11.20
2019-05-13T07:38:52.977Z,11.40
2019-05-13T07:41:35.260Z,11.40
2019-05-13T07:43:53.667Z,11.70
2019-05-13T07:46:23.481Z,11.20
2019-05-13T07:48:53.499Z,11.50
2019-05-13T07:51:23.376Z,11.70
2019-05-13T07:53:52.903Z,11.50
2019-05-13T07:56:22.082Z,11.40
2019-05-13T07:58:52.402Z,11.40
2019-05-13T08:01:22.252Z,11.60
2019-05-13T08:03:52.472Z,11.30
2019-05-13T08:06:22.249Z,11.60
2019-05-13T08:08:52.247Z,11.60
2019-05-13T08:11:22.468Z,11.30
2019-05-13T08:13:53.513Z,11.50
2019-05-13T08:16:23.060Z,12.00
2019-05-13T08:18:52.471Z,12.00
2019-05-13T08:21:21.771Z,11.90
2019-05-13T08:23:52.401Z,12.30
2019-05-13T08:26:22.244Z,12.30
2019-05-13T08:29:01.326Z,12.50
2019-05-13T08:31:22.807Z,12.20
2019-05-13T08:33:52.426Z,12.20
2019-05-13T08:36:23.461Z,12.30
2019-05-13T08:38:52.805Z,12.20
2019-05-13T08:41:23.469Z,12.30
2019-05-13T08:43:52.953Z,12.40
2019-05-13T08:46:22.743Z,12.40
2019-05-13T08:48:52.383Z,12.50
2019-05-13T08:51:22.169Z,12.40
2019-05-13T08:53:51.867Z,12.30
2019-05-13T08:56:21.771Z,12.50
2019-05-13T08:58:52.101Z,12.40
2019-05-13T09:01:22.692Z,12.80
2019-05-13T09:03:52.758Z,13.20
2019-05-13T09:06:22.437Z,13.10
2019-05-13T09:08:54.219Z,12.70
2019-05-13T09:11:23.455Z,12.80
2019-05-13T09:13:52.972Z,12.90
2019-05-13T09:16:22.904Z,12.70
2019-05-13T09:18:52.249Z,12.70
2019-05-13T09:21:22.421Z,12.90
2019-05-13T09:23:52.151Z,13.20
2019-05-13T09:26:22.706Z,12.80
2019-05-13T09:28:52.692Z,13.00
2019-05-13T09:31:22.502Z,12.50
2019-05-13T09:33:52.211Z,12.50
2019-05-13T09:36:21.956Z,12.60
2019-05-13T09:38:52.650Z,13.00
2019-05-13T09:41:22.171Z,13.00
2019-05-13T09:43:51.790Z,12.90
2019-05-13T09:46:22.588Z,13.10
2019-05-13T09:48:52.315Z,13.10
2019-05-13T09:51:21.942Z,13.00
2019-05-13T09:53:51.941Z,13.20
2019-05-13T09:56:22.419Z,13.20
2019-05-13T09:58:52.076Z,12.90
2019-05-13T10:01:22.544Z,12.80
2019-05-13T10:03:57.182Z,12.70
2019-05-13T10:06:23.801Z,12.70
2019-05-13T10:08:53.287Z,12.80
2019-05-13T10:11:22.902Z,12.60
2019-05-13T10:13:52.818Z,12.70
2019-05-13T10:16:22.636Z,12.50
2019-05-13T10:18:52.569Z,12.50
2019-05-13T10:21:22.475Z,12.40
2019-05-13T10:23:52.088Z,12.50
2019-05-13T10:26:22.557Z,12.40
2019-05-13T10:28:52.592Z,12.50
2019-05-13T10:31:22.326Z,12.60
2019-05-13T10:33:51.963Z,12.60
2019-05-13T10:36:22.278Z,12.60
2019-05-13T10:38:52.634Z,12.60
2019-05-13T10:41:22.615Z,12.90
2019-05-13T10:43:52.490Z,13.20
2019-05-13T10:46:22.276Z,13.00
2019-05-13T10:48:52.855Z,12.70
2019-05-13T10:51:22.988Z,12.60
2019-05-13T10:53:58.494Z,12.30
2019-05-13T10:56:24.156Z,12.60
2019-05-13T10:58:53.674Z,13.00
2019-05-13T11:01:23.070Z,12.90
2019-05-13T11:03:52.918Z,13.20
2019-05-13T11:06:22.187Z,13.20
2019-05-13T11:08:53.166Z,12.90
2019-05-13T11:11:23.323Z,12.80
2019-05-13T11:13:59.034Z,12.80
2019-05-13T11:16:23.552Z,12.80
2019-05-13T11:18:53.503Z,12.90
2019-05-13T11:21:22.735Z,13.10
2019-05-13T11:23:52.357Z,13.00
2019-05-13T11:26:22.352Z,13.00
2019-05-13T11:28:52.429Z,13.00
2019-05-13T11:31:22.344Z,12.80
2019-05-13T11:33:52.555Z,12.90
2019-05-13T11:36:23.300Z,13.00
2019-05-13T11:38:53.391Z,13.60
2019-05-13T11:41:23.371Z,13.70
2019-05-13T11:44:09.257Z,13.90
2019-05-13T11:46:24.116Z,13.90
2019-05-13T11:48:53.607Z,13.70
2019-05-13T11:51:24.200Z,13.50
2019-05-13T11:53:54.171Z,13.60
2019-05-13T11:56:24.090Z,13.90
2019-05-13T11:58:53.693Z,14.00
2019-05-13T12:01:23.176Z,13.90
2019-05-13T12:03:53.290Z,14.00
2019-05-13T12:06:23.611Z,14.20
2019-05-13T12:08:55.283Z,14.30
2019-05-13T12:11:24.512Z,14.00
2019-05-13T12:13:53.776Z,14.20
2019-05-13T12:16:23.127Z,14.00
2019-05-13T12:18:53.146Z,13.70
2019-05-13T12:21:22.722Z,13.90
2019-05-13T12:23:53.809Z,13.90
2019-05-13T12:26:23.944Z,14.00
2019-05-13T12:28:54.007Z,13.50
2019-05-13T12:31:24.027Z,13.50
2019-05-13T12:33:53.645Z,13.90
2019-05-13T12:36:23.733Z,14.10
2019-05-13T12:38:54.545Z,13.90
2019-05-13T12:41:23.952Z,13.80
2019-05-13T12:43:53.906Z,14.00
2019-05-13T12:46:24.677Z,14.20
2019-05-13T12:48:54.758Z,13.80
2019-05-13T12:51:23.981Z,13.90
2019-05-13T12:53:53.646Z,13.90
2019-05-13T12:56:23.800Z,13.80
2019-05-13T12:58:53.347Z,13.80
2019-05-13T13:01:24.152Z,13.80
2019-05-13T13:03:53.663Z,14.20
2019-05-13T13:06:32.502Z,14.60
2019-05-13T13:08:55.007Z,14.70
2019-05-13T13:11:24.501Z,14.40
2019-05-13T13:13:59.454Z,13.90
2019-05-13T13:16:33.257Z,14.00
2019-05-13T13:18:56.303Z,14.30
2019-05-13T13:21:33.192Z,14.40
2019-05-13T13:26:36.396Z,14.80
2019-05-13T13:29:06.543Z,15.10
2019-05-13T13:31:35.970Z,14.40
2019-05-13T13:34:12.136Z,14.60
2019-05-13T13:36:36.103Z,14.60
2019-05-13T13:39:07.375Z,14.50
2019-05-13T13:41:36.600Z,14.30
2019-05-13T13:44:06.433Z,14.60
2019-05-13T13:46:44.815Z,14.40
2019-05-13T13:49:08.358Z,14.00
2019-05-13T13:51:37.599Z,14.00
2019-05-13T13:54:06.880Z,14.60
2019-05-13T13:56:36.499Z,14.80
2019-05-13T13:59:05.757Z,14.20
2019-05-13T14:01:35.604Z,14.40
2019-05-13T14:04:04.866Z,14.50
2019-05-13T14:09:07.080Z,14.70
2019-05-13T14:11:36.666Z,14.30
2019-05-13T14:14:06.236Z,14.40
2019-05-13T14:16:35.508Z,14.30
2019-05-13T14:19:05.776Z,14.40
2019-05-13T14:21:35.676Z,14.40
2019-05-13T14:24:04.957Z,14.60
2019-05-13T14:26:34.571Z,14.60
2019-05-13T14:29:04.368Z,14.60
2019-05-13T14:31:34.400Z,14.60
2019-05-13T14:34:03.888Z,14.60
2019-05-13T14:36:33.441Z,14.70
2019-05-13T14:39:03.106Z,14.60
2019-05-13T14:41:32.620Z,14.60
2019-05-13T14:44:03.702Z,14.40
2019-05-13T14:46:46.316Z,14.70
2019-05-13T14:49:04.436Z,14.30
2019-05-13T14:51:34.357Z,13.90
2019-05-13T14:54:03.905Z,14.20
2019-05-13T14:56:33.421Z,14.50
2019-05-13T14:59:02.965Z,14.80
2019-05-13T15:01:32.643Z,14.90
2019-05-13T15:04:02.809Z,14.50
2019-05-13T15:06:32.924Z,14.80
2019-05-13T15:09:02.628Z,14.60
2019-05-13T15:11:32.519Z,14.80
2019-05-13T15:14:02.577Z,14.70
2019-05-13T15:16:32.015Z,14.50
2019-05-13T15:19:01.917Z,14.60
2019-05-13T15:21:32.217Z,14.50
2019-05-13T15:24:02.508Z,14.20
2019-05-13T15:26:32.020Z,14.40
2019-05-13T15:29:04.986Z,14.30
2019-05-13T15:31:33.296Z,14.40
2019-05-13T15:34:21.660Z,14.40
2019-05-13T15:36:51.556Z,14.30
2019-05-13T15:39:21.818Z,14.50
2019-05-13T15:41:52.359Z,14.50
2019-05-13T15:44:22.039Z,14.50
2019-05-13T15:46:52.394Z,14.60
2019-05-13T15:49:22.400Z,14.50
2019-05-13T15:51:52.247Z,14.60
2019-05-13T15:54:22.231Z,14.40
2019-05-13T15:56:52.360Z,14.40
2019-05-13T15:59:21.684Z,14.50
2019-05-13T16:01:52.534Z,14.60
2019-05-13T16:04:22.750Z,14.80
2019-05-13T16:06:52.491Z,14.80
2019-05-13T16:09:22.047Z,14.80
2019-05-13T16:11:52.198Z,14.70
2019-05-13T16:14:22.038Z,14.50
2019-05-13T16:16:51.993Z,14.50
2019-05-13T16:19:22.130Z,14.60
2019-05-13T16:21:51.862Z,14.90
2019-05-13T16:24:21.752Z,14.90
2019-05-13T16:26:52.308Z,14.80
2019-05-13T16:29:22.537Z,14.50
2019-05-13T16:31:52.175Z,14.20
2019-05-13T16:34:22.300Z,14.10
2019-05-13T16:36:53.044Z,14.00
2019-05-13T16:39:22.392Z,14.40
2019-05-13T16:41:52.044Z,14.10
2019-05-13T16:44:22.578Z,14.40
2019-05-13T16:46:52.688Z,14.40
2019-05-13T16:49:22.198Z,14.50
2019-05-13T16:51:52.274Z,14.40
2019-05-13T16:54:22.163Z,14.40
2019-05-13T16:56:51.939Z,14.50
2019-05-13T16:59:21.579Z,14.30
2019-05-13T17:01:51.309Z,14.20
2019-05-13T17:04:21.525Z,14.20
2019-05-13T17:06:53.176Z,14.20
2019-05-13T17:09:22.823Z,14.10
2019-05-13T17:11:52.703Z,14.10
2019-05-13T17:14:21.885Z,14.10
2019-05-13T17:16:51.860Z,14.20
2019-05-13T17:19:21.255Z,14.10
2019-05-13T17:21:52.026Z,14.00
2019-05-13T17:24:22.578Z,14.10
2019-05-13T17:26:52.407Z,14.10
2019-05-13T17:29:21.707Z,14.20
2019-05-13T17:31:51.579Z,14.40
2019-05-13T17:34:21.546Z,14.40
2019-05-13T17:36:51.945Z,14.40
2019-05-13T17:39:21.789Z,14.20
2019-05-13T17:41:52.211Z,14.40
2019-05-13T17:44:22.409Z,14.40
2019-05-13T17:46:52.279Z,14.30
2019-05-13T17:49:22.147Z,14.10
2019-05-13T17:51:52.296Z,14.40
2019-05-13T17:54:22.314Z,14.10
2019-05-13T17:56:51.760Z,13.80
2019-05-13T17:59:21.885Z,13.90
2019-05-13T18:01:51.891Z,13.80
2019-05-13T18:04:22.609Z,13.70
2019-05-13T18:06:52.380Z,13.60
2019-05-13T18:09:22.417Z,13.70
2019-05-13T18:11:52.836Z,13.90
2019-05-13T18:14:22.843Z,13.80
2019-05-13T18:16:52.049Z,13.60
2019-05-13T18:19:22.166Z,13.20
2019-05-13T18:21:52.275Z,13.20
2019-05-13T18:24:21.515Z,13.20
2019-05-13T18:26:52.105Z,13.10
2019-05-13T18:29:24.637Z,13.00
2019-05-13T18:31:53.831Z,12.90
2019-05-13T18:34:23.257Z,12.80
2019-05-13T18:36:52.674Z,12.80
2019-05-13T18:39:25.272Z,12.70
2019-05-13T18:41:54.930Z,12.60
2019-05-13T18:44:24.545Z,12.60
2019-05-13T18:46:54.127Z,12.60
2019-05-13T18:49:23.894Z,12.50
2019-05-13T18:51:53.144Z,12.50
2019-05-13T18:54:22.290Z,12.40
2019-05-13T18:56:52.440Z,12.40
2019-05-13T18:59:22.179Z,12.20
2019-05-13T19:01:54.433Z,12.20
2019-05-13T19:04:24.051Z,12.20
2019-05-13T19:06:54.234Z,12.10
2019-05-13T19:09:24.007Z,12.10
2019-05-13T19:11:53.533Z,12.00
2019-05-13T19:14:23.393Z,11.90
2019-05-13T19:16:53.039Z,11.80
2019-05-13T19:19:22.993Z,11.80
2019-05-13T19:21:52.703Z,11.70
2019-05-13T19:24:23.138Z,11.70
2019-05-13T19:26:53.214Z,11.60
2019-05-13T19:29:25.794Z,11.60
2019-05-13T19:31:53.720Z,11.50
2019-05-13T19:34:23.519Z,11.50
2019-05-13T19:36:53.378Z,11.50
2019-05-13T19:39:23.358Z,11.50
2019-05-13T19:41:53.403Z,11.40
2019-05-13T19:44:24.179Z,11.30
2019-05-13T19:46:53.616Z,11.20
2019-05-13T19:49:32.573Z,11.20
2019-05-13T19:51:54.369Z,11.10
2019-05-13T19:54:24.196Z,11.00
2019-05-13T19:56:53.518Z,11.00
2019-05-13T19:59:23.611Z,10.90
2019-05-13T20:01:53.725Z,10.90
2019-05-13T20:04:23.637Z,10.90
2019-05-13T20:06:53.156Z,10.80
2019-05-13T20:09:22.784Z,10.70
2019-05-13T20:11:55.418Z,10.70
2019-05-13T20:14:23.252Z,10.70
2019-05-13T20:16:53.031Z,10.70
2019-05-13T20:19:22.835Z,10.70
2019-05-13T20:21:52.447Z,10.60
2019-05-13T20:24:22.096Z,10.60
2019-05-13T20:26:52.278Z,10.50
2019-05-13T20:29:22.315Z,10.40
2019-05-13T20:31:51.920Z,10.40
2019-05-13T20:34:22.203Z,10.30
2019-05-13T20:36:51.734Z,10.30
2019-05-13T20:39:22.434Z,10.20
2019-05-13T20:41:55.681Z,10.20
2019-05-13T20:44:23.626Z,10.10
2019-05-13T20:46:53.555Z,10.10
2019-05-13T20:49:23.075Z,10.00
2019-05-13T20:51:52.247Z,10.00
2019-05-13T20:54:22.152Z,10.10
2019-05-13T20:56:51.837Z,10.00
2019-05-13T20:59:21.708Z,10.00
2019-05-13T21:01:51.407Z,10.10
2019-05-13T21:04:21.503Z,10.00
2019-05-13T21:06:51.729Z,10.10
2019-05-13T21:09:21.323Z,9.90
2019-05-13T21:11:51.597Z,9.90
2019-05-13T21:14:21.560Z,9.80
2019-05-13T21:16:53.437Z,9.80
2019-05-13T21:19:22.090Z,9.80
2019-05-13T21:21:51.956Z,9.80
2019-05-13T21:24:21.840Z,9.70
2019-05-13T21:26:51.265Z,9.80
2019-05-13T21:29:21.617Z,9.80
2019-05-13T21:31:52.923Z,9.70
2019-05-13T21:34:22.543Z,9.80
2019-05-13T21:36:51.935Z,9.80
2019-05-13T21:39:21.567Z,9.80
2019-05-13T21:41:51.921Z,9.70
2019-05-13T21:44:21.902Z,9.70
2019-05-13T21:46:51.631Z,9.50
2019-05-13T21:49:21.458Z,9.60
2019-05-13T21:51:52.103Z,9.60
2019-05-13T21:54:21.778Z,9.60
2019-05-13T21:56:51.623Z,9.60
2019-05-13T21:59:23.209Z,9.60
2019-05-13T22:01:52.359Z,9.50
2019-05-13T22:04:21.608Z,9.50
2019-05-13T22:06:50.864Z,9.50
2019-05-13T22:09:22.090Z,9.40
2019-05-13T22:11:51.639Z,9.50
2019-05-13T22:14:20.798Z,9.40
2019-05-13T22:16:51.748Z,9.30
2019-05-13T22:19:22.310Z,9.30
2019-05-13T22:21:51.660Z,9.20
2019-05-13T22:24:22.121Z,9.20
2019-05-13T22:26:51.865Z,9.20
2019-05-13T22:29:23.238Z,9.10
2019-05-13T22:31:53.465Z,9.00
2019-05-13T22:34:23.024Z,9.00
2019-05-13T22:36:52.591Z,9.00
2019-05-13T22:39:22.345Z,9.00
2019-05-13T22:41:52.390Z,9.00
2019-05-13T22:44:22.459Z,8.90
2019-05-13T22:46:52.255Z,8.80
2019-05-13T22:49:22.502Z,8.80
2019-05-13T22:51:51.722Z,8.80
2019-05-13T22:54:21.615Z,8.70
2019-05-13T22:56:52.201Z,8.80
2019-05-13T22:59:21.870Z,8.60
2019-05-13T23:01:52.368Z,8.50
2019-05-13T23:04:22.021Z,8.60
2019-05-13T23:06:58.076Z,8.50
2019-05-13T23:09:27.980Z,8.50
2019-05-13T23:11:57.815Z,8.40
2019-05-13T23:14:27.396Z,8.30
2019-05-13T23:16:57.323Z,8.30
2019-05-13T23:19:27.116Z,8.30
2019-05-13T23:21:56.535Z,8.30
2019-05-13T23:24:26.446Z,8.20
2019-05-13T23:26:56.391Z,8.10
2019-05-13T23:29:26.159Z,8.10
2019-05-13T23:31:55.659Z,8.10
2019-05-13T23:34:24.907Z,8.00
2019-05-13T23:36:58.775Z,7.90
2019-05-13T23:39:28.309Z,7.90
2019-05-13T23:41:57.447Z,7.90
2019-05-13T23:44:28.168Z,7.80
2019-05-13T23:46:57.664Z,7.70
2019-05-13T23:49:27.227Z,7.70
2019-05-13T23:51:56.385Z,7.60
2019-05-13T23:54:25.839Z,7.50
2019-05-13T23:56:55.067Z,7.60
2019-05-13T23:59:24.235Z,7.60
